createdAt,value
2019-03-22T00:00:00.588Z,8.883667
2019-03-22T00:00:12.409Z,8.883667
2019-03-22T00:00:24.190Z,8.873596
2019-03-22T00:00:35.983Z,8.883667
2019-03-22T00:00:47.736Z,8.903809
2019-03-22T00:00:59.502Z,8.883667
2019-03-22T00:01:11.275Z,8.883667
2019-03-22T00:01:23.055Z,8.873596
2019-03-22T00:01:34.811Z,8.883667
2019-03-22T00:01:46.571Z,8.883667
2019-03-22T00:01:58.348Z,8.873596
2019-03-22T00:02:10.116Z,8.883667
2019-03-22T00:02:21.875Z,8.873596
2019-03-22T00:02:33.646Z,8.873596
2019-03-22T00:02:45.410Z,8.883667
2019-03-22T00:02:57.154Z,8.873596
2019-03-22T00:03:08.894Z,8.873596
2019-03-22T00:03:20.633Z,8.873596
2019-03-22T00:03:32.414Z,8.873596
2019-03-22T00:03:44.182Z,8.873596
2019-03-22T00:03:55.922Z,8.863525
2019-03-22T00:04:07.698Z,8.873596
2019-03-22T00:04:19.455Z,8.863525
2019-03-22T00:04:31.207Z,8.873596
2019-03-22T00:04:42.995Z,8.863525
2019-03-22T00:04:54.768Z,8.863525
2019-03-22T00:05:06.529Z,8.863525
2019-03-22T00:05:18.345Z,8.833313
2019-03-22T00:05:30.122Z,8.843384
2019-03-22T00:05:41.901Z,8.843384
2019-03-22T00:05:53.649Z,8.833313
2019-03-22T00:06:05.426Z,8.813171
2019-03-22T00:06:17.199Z,8.843384
2019-03-22T00:06:29.016Z,8.833313
2019-03-22T00:06:40.780Z,8.843384
2019-03-22T00:06:52.543Z,8.843384
2019-03-22T00:07:04.291Z,8.833313
2019-03-22T00:07:16.049Z,8.863525
2019-03-22T00:07:27.814Z,8.843384
2019-03-22T00:07:39.582Z,8.843384
2019-03-22T00:07:51.337Z,8.843384
2019-03-22T00:08:04.103Z,8.843384
2019-03-22T00:08:15.841Z,8.843384
2019-03-22T00:08:27.602Z,8.863525
2019-03-22T00:08:39.386Z,8.843384
2019-03-22T00:08:51.154Z,8.863525
2019-03-22T00:09:02.922Z,8.843384
2019-03-22T00:09:14.658Z,8.843384
2019-03-22T00:09:26.418Z,8.843384
2019-03-22T00:09:38.193Z,8.843384
2019-03-22T00:09:49.963Z,8.843384
2019-03-22T00:10:01.736Z,8.863525
2019-03-22T00:10:13.503Z,8.863525
2019-03-22T00:10:25.259Z,8.863525
2019-03-22T00:10:37.015Z,8.863525
2019-03-22T00:10:48.772Z,8.863525
2019-03-22T00:11:00.576Z,8.843384
2019-03-22T00:11:12.331Z,8.873596
2019-03-22T00:11:24.131Z,8.863525
2019-03-22T00:11:35.927Z,8.863525
2019-03-22T00:11:47.712Z,8.873596
2019-03-22T00:11:59.492Z,8.863525
2019-03-22T00:12:11.264Z,8.873596
2019-03-22T00:12:23.044Z,8.873596
2019-03-22T00:12:34.817Z,8.863525
2019-03-22T00:12:46.606Z,8.873596
2019-03-22T00:12:58.361Z,8.873596
2019-03-22T00:13:10.122Z,8.873596
2019-03-22T00:13:21.865Z,8.863525
2019-03-22T00:13:33.649Z,8.873596
2019-03-22T00:13:45.391Z,8.883667
2019-03-22T00:13:57.197Z,8.873596
2019-03-22T00:14:08.937Z,8.873596
2019-03-22T00:14:20.677Z,8.873596
2019-03-22T00:14:32.420Z,8.873596
2019-03-22T00:14:44.178Z,8.883667
2019-03-22T00:14:55.953Z,8.903809
2019-03-22T00:15:07.718Z,8.883667
2019-03-22T00:15:19.494Z,8.873596
2019-03-22T00:15:31.274Z,8.863525
2019-03-22T00:15:43.039Z,8.873596
2019-03-22T00:15:54.830Z,8.873596
2019-03-22T00:16:06.578Z,8.863525
2019-03-22T00:16:18.370Z,8.863525
2019-03-22T00:16:30.164Z,8.843384
2019-03-22T00:16:41.922Z,8.873596
2019-03-22T00:16:53.707Z,8.863525
2019-03-22T00:17:05.444Z,8.873596
2019-03-22T00:17:17.214Z,8.863525
2019-03-22T00:17:29.000Z,8.863525
2019-03-22T00:17:40.776Z,8.843384
2019-03-22T00:17:52.545Z,8.843384
2019-03-22T00:18:04.339Z,8.843384
2019-03-22T00:18:16.129Z,8.843384
2019-03-22T00:18:27.890Z,8.833313
2019-03-22T00:18:39.685Z,8.813171
2019-03-22T00:18:51.455Z,8.833313
2019-03-22T00:19:03.212Z,8.833313
2019-03-22T00:19:14.965Z,8.813171
2019-03-22T00:19:26.702Z,8.833313
2019-03-22T00:19:38.483Z,8.833313
2019-03-22T00:19:50.276Z,8.833313
2019-03-22T00:20:02.037Z,8.843384
2019-03-22T00:20:13.842Z,8.843384
2019-03-22T00:20:25.598Z,8.833313
2019-03-22T00:20:37.391Z,8.843384
2019-03-22T00:20:49.163Z,8.843384
2019-03-22T00:21:00.912Z,8.833313
2019-03-22T00:21:12.690Z,8.843384
2019-03-22T00:21:24.477Z,8.843384
2019-03-22T00:21:36.270Z,8.833313
2019-03-22T00:21:48.010Z,8.833313
2019-03-22T00:21:59.806Z,8.843384
2019-03-22T00:22:11.572Z,8.863525
2019-03-22T00:22:23.335Z,8.843384
2019-03-22T00:22:35.098Z,8.843384
2019-03-22T00:22:46.869Z,8.833313
2019-03-22T00:22:58.631Z,8.843384
2019-03-22T00:23:10.393Z,8.843384
2019-03-22T00:23:22.155Z,8.863525
2019-03-22T00:23:33.923Z,8.863525
2019-03-22T00:23:45.698Z,8.863525
2019-03-22T00:23:57.474Z,8.863525
2019-03-22T00:24:09.251Z,8.863525
2019-03-22T00:24:21.006Z,8.863525
2019-03-22T00:24:32.772Z,8.843384
2019-03-22T00:24:44.575Z,8.833313
2019-03-22T00:24:56.298Z,8.843384
2019-03-22T00:25:08.062Z,8.833313
2019-03-22T00:25:19.830Z,8.843384
2019-03-22T00:25:31.604Z,8.833313
2019-03-22T00:25:43.359Z,8.833313
2019-03-22T00:25:55.115Z,8.833313
2019-03-22T00:26:06.895Z,8.833313
2019-03-22T00:26:18.833Z,8.833313
2019-03-22T00:26:32.519Z,8.833313
2019-03-22T00:26:42.369Z,8.833313
2019-03-22T00:26:54.147Z,8.833313
2019-03-22T00:27:15.805Z,8.813171
2019-03-22T00:27:18.643Z,8.813171
2019-03-22T00:27:30.412Z,8.833313
2019-03-22T00:27:42.179Z,8.813171
2019-03-22T00:27:53.948Z,8.833313
2019-03-22T00:28:05.719Z,8.833313
2019-03-22T00:28:17.469Z,8.833313
2019-03-22T00:28:29.251Z,8.833313
2019-03-22T00:28:41.013Z,8.833313
2019-03-22T00:28:52.790Z,8.833313
2019-03-22T00:29:04.555Z,8.813171
2019-03-22T00:29:16.326Z,8.813171
2019-03-22T00:29:28.080Z,8.79303
2019-03-22T00:29:39.867Z,8.79303
2019-03-22T00:29:51.653Z,8.813171
2019-03-22T00:30:03.429Z,8.79303
2019-03-22T00:30:15.214Z,8.79303
2019-03-22T00:30:27.007Z,8.79303
2019-03-22T00:30:38.770Z,8.79303
2019-03-22T00:30:50.509Z,8.813171
2019-03-22T00:31:02.306Z,8.813171
2019-03-22T00:31:14.056Z,8.833313
2019-03-22T00:31:36.610Z,8.833313
2019-03-22T00:31:48.383Z,8.833313
2019-03-22T00:32:00.151Z,8.863525
2019-03-22T00:32:11.950Z,8.863525
2019-03-22T00:32:23.706Z,8.843384
2019-03-22T00:32:35.464Z,8.873596
2019-03-22T00:32:47.207Z,8.873596
2019-03-22T00:32:58.980Z,8.873596
2019-03-22T00:33:10.750Z,8.873596
2019-03-22T00:33:22.511Z,8.873596
2019-03-22T00:33:34.263Z,8.873596
2019-03-22T00:33:46.022Z,8.883667
2019-03-22T00:33:57.787Z,8.873596
2019-03-22T00:34:09.583Z,8.883667
2019-03-22T00:34:21.365Z,8.873596
2019-03-22T00:34:33.106Z,8.883667
2019-03-22T00:34:44.853Z,8.883667
2019-03-22T00:34:56.626Z,8.903809
2019-03-22T00:35:08.380Z,8.903809
2019-03-22T00:35:20.148Z,8.883667
2019-03-22T00:35:31.903Z,8.883667
2019-03-22T00:35:43.651Z,8.883667
2019-03-22T00:35:55.428Z,8.903809
2019-03-22T00:36:07.200Z,8.903809
2019-03-22T00:36:19.007Z,8.903809
2019-03-22T00:36:30.709Z,8.903809
2019-03-22T00:36:42.469Z,8.883667
2019-03-22T00:36:54.269Z,8.903809
2019-03-22T00:37:06.026Z,8.903809
2019-03-22T00:37:17.789Z,8.873596
2019-03-22T00:37:29.548Z,8.873596
2019-03-22T00:37:41.361Z,8.873596
2019-03-22T00:37:53.135Z,8.863525
2019-03-22T00:38:04.899Z,8.843384
2019-03-22T00:38:16.681Z,8.863525
2019-03-22T00:38:28.420Z,8.843384
2019-03-22T00:38:40.198Z,8.813171
2019-03-22T00:38:51.959Z,8.813171
2019-03-22T00:39:03.714Z,8.813171
2019-03-22T00:39:15.479Z,8.813171
2019-03-22T00:39:27.269Z,8.79303
2019-03-22T00:39:39.047Z,8.813171
2019-03-22T00:39:50.810Z,8.813171
2019-03-22T00:40:02.565Z,8.79303
2019-03-22T00:40:14.349Z,8.813171
2019-03-22T00:40:26.092Z,8.833313
2019-03-22T00:40:37.868Z,8.813171
2019-03-22T00:40:49.616Z,8.813171
2019-03-22T00:41:01.371Z,8.833313
2019-03-22T00:41:13.126Z,8.833313
2019-03-22T00:41:24.882Z,8.843384
2019-03-22T00:41:36.639Z,8.843384
2019-03-22T00:41:48.393Z,8.843384
2019-03-22T00:42:01.157Z,8.843384
2019-03-22T00:42:12.915Z,8.843384
2019-03-22T00:42:24.720Z,8.843384
2019-03-22T00:42:36.487Z,8.843384
2019-03-22T00:42:48.282Z,8.863525
2019-03-22T00:43:00.047Z,8.843384
2019-03-22T00:43:11.825Z,8.863525
2019-03-22T00:43:23.631Z,8.843384
2019-03-22T00:43:35.377Z,8.863525
2019-03-22T00:43:47.130Z,8.843384
2019-03-22T00:43:58.902Z,8.843384
2019-03-22T00:44:10.691Z,8.863525
2019-03-22T00:44:22.469Z,8.863525
2019-03-22T00:44:34.222Z,8.863525
2019-03-22T00:44:46.007Z,8.843384
2019-03-22T00:44:57.819Z,8.863525
2019-03-22T00:45:09.527Z,8.843384
2019-03-22T00:45:21.261Z,8.863525
2019-03-22T00:45:33.017Z,8.873596
2019-03-22T00:45:44.764Z,8.863525
2019-03-22T00:45:56.569Z,8.863525
2019-03-22T00:46:08.329Z,8.863525
2019-03-22T00:46:20.080Z,8.863525
2019-03-22T00:46:31.838Z,8.863525
2019-03-22T00:46:43.606Z,8.863525
2019-03-22T00:46:55.384Z,8.873596
2019-03-22T00:47:07.146Z,8.863525
2019-03-22T00:47:18.889Z,8.873596
2019-03-22T00:47:30.654Z,8.883667
2019-03-22T00:47:42.418Z,8.873596
2019-03-22T00:47:54.207Z,8.883667
2019-03-22T00:48:05.956Z,8.883667
2019-03-22T00:48:17.716Z,8.873596
2019-03-22T00:48:29.461Z,8.903809
2019-03-22T00:48:41.244Z,8.903809
2019-03-22T00:48:53.012Z,8.883667
2019-03-22T00:49:04.786Z,8.903809
2019-03-22T00:49:16.546Z,8.913879
2019-03-22T00:49:28.335Z,8.883667
2019-03-22T00:49:40.084Z,8.903809
2019-03-22T00:49:51.830Z,8.903809
2019-03-22T00:50:03.610Z,8.913879
2019-03-22T00:50:15.351Z,8.913879
2019-03-22T00:50:27.115Z,8.913879
2019-03-22T00:50:38.871Z,8.913879
2019-03-22T00:50:50.621Z,8.934021
2019-03-22T00:51:02.376Z,8.934021
2019-03-22T00:51:14.137Z,8.934021
2019-03-22T00:51:25.886Z,8.934021
2019-03-22T00:51:37.678Z,8.944092
2019-03-22T00:51:49.468Z,8.934021
2019-03-22T00:52:01.223Z,8.934021
2019-03-22T00:52:12.996Z,8.944092
2019-03-22T00:52:24.754Z,8.944092
2019-03-22T00:52:36.530Z,8.934021
2019-03-22T00:52:48.284Z,8.944092
2019-03-22T00:53:00.048Z,8.944092
2019-03-22T00:53:11.821Z,8.944092
2019-03-22T00:53:24.596Z,8.964233
2019-03-22T00:53:36.344Z,8.964233
2019-03-22T00:53:48.150Z,8.944092
2019-03-22T00:53:59.897Z,8.964233
2019-03-22T00:54:11.677Z,8.944092
2019-03-22T00:54:23.456Z,8.964233
2019-03-22T00:54:35.219Z,8.974304
2019-03-22T00:54:47.000Z,8.964233
2019-03-22T00:54:58.781Z,8.974304
2019-03-22T00:55:10.569Z,8.974304
2019-03-22T00:55:22.327Z,8.974304
2019-03-22T00:55:34.098Z,8.974304
2019-03-22T00:55:45.840Z,8.974304
2019-03-22T00:55:57.618Z,8.994446
2019-03-22T00:56:09.384Z,8.974304
2019-03-22T00:56:21.118Z,8.994446
2019-03-22T00:56:32.897Z,8.974304
2019-03-22T00:56:44.671Z,8.994446
2019-03-22T00:56:56.457Z,8.994446
2019-03-22T00:57:08.239Z,8.994446
2019-03-22T00:57:28.259Z,8.994446
2019-03-22T00:57:32.717Z,8.994446
2019-03-22T00:57:44.487Z,8.994446
2019-03-22T00:57:56.236Z,8.974304
2019-03-22T00:58:07.987Z,8.994446
2019-03-22T00:58:19.754Z,8.994446
2019-03-22T00:58:31.522Z,8.994446
2019-03-22T00:58:43.279Z,8.994446
2019-03-22T00:58:55.079Z,8.974304
2019-03-22T00:59:06.859Z,8.974304
2019-03-22T00:59:18.606Z,8.974304
2019-03-22T00:59:30.343Z,8.964233
2019-03-22T00:59:42.112Z,8.944092
2019-03-22T00:59:53.866Z,8.964233
2019-03-22T01:00:05.663Z,8.964233
2019-03-22T01:00:17.421Z,8.964233
2019-03-22T01:00:29.206Z,8.964233
2019-03-22T01:00:40.972Z,8.944092
2019-03-22T01:00:53.721Z,8.944092
2019-03-22T01:01:05.485Z,8.934021
2019-03-22T01:01:17.244Z,8.944092
2019-03-22T01:01:29.048Z,8.934021
2019-03-22T01:01:40.822Z,8.934021
2019-03-22T01:01:52.592Z,8.934021
2019-03-22T01:02:04.381Z,8.934021
2019-03-22T01:02:16.124Z,8.934021
2019-03-22T01:02:27.879Z,8.944092
2019-03-22T01:02:39.653Z,8.944092
2019-03-22T01:02:51.419Z,8.944092
2019-03-22T01:03:03.180Z,8.944092
2019-03-22T01:03:14.952Z,8.934021
2019-03-22T01:03:26.732Z,8.944092
2019-03-22T01:03:38.520Z,8.944092
2019-03-22T01:03:50.287Z,8.944092
2019-03-22T01:04:02.028Z,8.934021
2019-03-22T01:04:13.834Z,8.944092
2019-03-22T01:04:25.634Z,8.913879
2019-03-22T01:04:37.368Z,8.934021
2019-03-22T01:04:49.147Z,8.913879
2019-03-22T01:05:00.932Z,8.913879
2019-03-22T01:05:12.686Z,8.913879
2019-03-22T01:05:24.449Z,8.913879
2019-03-22T01:05:36.225Z,8.913879
2019-03-22T01:05:48.012Z,8.903809
2019-03-22T01:05:59.763Z,8.883667
2019-03-22T01:06:11.548Z,8.883667
2019-03-22T01:06:23.318Z,8.883667
2019-03-22T01:06:35.077Z,8.873596
2019-03-22T01:06:46.833Z,8.873596
2019-03-22T01:06:58.579Z,8.863525
2019-03-22T01:07:10.362Z,8.863525
2019-03-22T01:07:22.141Z,8.843384
2019-03-22T01:07:34.914Z,8.843384
2019-03-22T01:07:46.682Z,8.843384
2019-03-22T01:07:58.414Z,8.863525
2019-03-22T01:08:10.163Z,8.843384
2019-03-22T01:08:21.943Z,8.843384
2019-03-22T01:08:33.706Z,8.833313
2019-03-22T01:08:45.496Z,8.843384
2019-03-22T01:08:57.254Z,8.863525
2019-03-22T01:09:09.012Z,8.863525
2019-03-22T01:09:20.828Z,8.863525
2019-03-22T01:09:32.590Z,8.843384
2019-03-22T01:09:44.367Z,8.843384
2019-03-22T01:09:56.157Z,8.843384
2019-03-22T01:10:07.954Z,8.833313
2019-03-22T01:10:19.685Z,8.843384
2019-03-22T01:10:31.465Z,8.843384
2019-03-22T01:10:43.240Z,8.843384
2019-03-22T01:10:54.977Z,8.843384
2019-03-22T01:11:06.720Z,8.833313
2019-03-22T01:11:18.501Z,8.843384
2019-03-22T01:11:30.281Z,8.863525
2019-03-22T01:11:43.057Z,8.833313
2019-03-22T01:11:54.815Z,8.833313
2019-03-22T01:12:06.568Z,8.833313
2019-03-22T01:12:18.341Z,8.843384
2019-03-22T01:12:30.114Z,8.833313
2019-03-22T01:12:41.880Z,8.833313
2019-03-22T01:12:53.675Z,8.833313
2019-03-22T01:13:05.455Z,8.833313
2019-03-22T01:13:17.234Z,8.833313
2019-03-22T01:13:29.008Z,8.833313
2019-03-22T01:13:40.778Z,8.813171
2019-03-22T01:13:52.544Z,8.833313
2019-03-22T01:14:04.328Z,8.813171
2019-03-22T01:14:16.105Z,8.833313
2019-03-22T01:14:27.858Z,8.813171
2019-03-22T01:14:39.664Z,8.813171
2019-03-22T01:14:51.434Z,8.813171
2019-03-22T01:15:03.195Z,8.813171
2019-03-22T01:15:14.957Z,8.813171
2019-03-22T01:15:26.711Z,8.833313
2019-03-22T01:15:38.480Z,8.813171
2019-03-22T01:15:50.252Z,8.833313
2019-03-22T01:16:02.034Z,8.833313
2019-03-22T01:16:13.803Z,8.833313
2019-03-22T01:16:25.556Z,8.833313
2019-03-22T01:16:37.319Z,8.813171
2019-03-22T01:16:49.090Z,8.813171
2019-03-22T01:17:00.893Z,8.813171
2019-03-22T01:17:12.652Z,8.79303
2019-03-22T01:17:24.403Z,8.813171
2019-03-22T01:17:36.183Z,8.79303
2019-03-22T01:17:47.932Z,8.79303
2019-03-22T01:17:59.722Z,8.79303
2019-03-22T01:18:11.486Z,8.782959
2019-03-22T01:18:23.290Z,8.782959
2019-03-22T01:18:35.075Z,8.79303
2019-03-22T01:18:46.809Z,8.782959
2019-03-22T01:18:58.560Z,8.762817
2019-03-22T01:19:10.368Z,8.762817
2019-03-22T01:19:22.148Z,8.782959
2019-03-22T01:19:33.890Z,8.782959
2019-03-22T01:19:45.650Z,8.762817
2019-03-22T01:19:57.431Z,8.762817
2019-03-22T01:20:09.170Z,8.762817
2019-03-22T01:20:20.973Z,8.762817
2019-03-22T01:20:33.679Z,8.762817
2019-03-22T01:20:45.423Z,8.732605
2019-03-22T01:20:57.196Z,8.762817
2019-03-22T01:21:08.956Z,8.752747
2019-03-22T01:21:20.740Z,8.732605
2019-03-22T01:21:32.477Z,8.752747
2019-03-22T01:21:44.265Z,8.732605
2019-03-22T01:21:56.019Z,8.732605
2019-03-22T01:22:07.786Z,8.732605
2019-03-22T01:22:19.572Z,8.722534
2019-03-22T01:22:31.318Z,8.722534
2019-03-22T01:22:43.103Z,8.722534
2019-03-22T01:22:54.862Z,8.722534
2019-03-22T01:23:06.629Z,8.732605
2019-03-22T01:23:18.399Z,8.722534
2019-03-22T01:23:30.167Z,8.732605
2019-03-22T01:23:41.920Z,8.722534
2019-03-22T01:23:53.665Z,8.722534
2019-03-22T01:24:05.404Z,8.732605
2019-03-22T01:24:17.249Z,8.732605
2019-03-22T01:24:29.048Z,8.722534
2019-03-22T01:24:40.815Z,8.732605
2019-03-22T01:24:52.562Z,8.722534
2019-03-22T01:25:04.313Z,8.752747
2019-03-22T01:25:16.099Z,8.732605
2019-03-22T01:25:27.888Z,8.732605
2019-03-22T01:25:39.721Z,8.752747
2019-03-22T01:25:51.435Z,8.732605
2019-03-22T01:26:03.188Z,8.752747
2019-03-22T01:26:14.954Z,8.752747
2019-03-22T01:26:26.706Z,8.732605
2019-03-22T01:26:38.500Z,8.732605
2019-03-22T01:26:50.271Z,8.732605
2019-03-22T01:27:02.037Z,8.732605
2019-03-22T01:27:13.813Z,8.732605
2019-03-22T01:27:25.592Z,8.722534
2019-03-22T01:27:40.571Z,8.732605
2019-03-22T01:27:51.031Z,8.732605
2019-03-22T01:28:02.806Z,8.732605
2019-03-22T01:28:14.580Z,8.732605
2019-03-22T01:28:26.342Z,8.722534
2019-03-22T01:28:38.092Z,8.752747
2019-03-22T01:28:49.840Z,8.752747
2019-03-22T01:29:01.613Z,8.732605
2019-03-22T01:29:13.385Z,8.732605
2019-03-22T01:29:25.182Z,8.752747
2019-03-22T01:29:36.989Z,8.752747
2019-03-22T01:29:48.764Z,8.732605
2019-03-22T01:30:00.528Z,8.752747
2019-03-22T01:30:12.288Z,8.732605
2019-03-22T01:30:24.055Z,8.732605
2019-03-22T01:30:35.799Z,8.752747
2019-03-22T01:30:47.595Z,8.752747
2019-03-22T01:30:59.367Z,8.732605
2019-03-22T01:31:11.104Z,8.762817
2019-03-22T01:31:22.910Z,8.752747
2019-03-22T01:31:34.688Z,8.752747
2019-03-22T01:31:46.438Z,8.762817
2019-03-22T01:31:58.224Z,8.762817
2019-03-22T01:32:10.020Z,8.762817
2019-03-22T01:32:21.768Z,8.762817
2019-03-22T01:32:33.547Z,8.782959
2019-03-22T01:32:45.325Z,8.762817
2019-03-22T01:32:57.084Z,8.762817
2019-03-22T01:33:08.869Z,8.762817
2019-03-22T01:33:20.622Z,8.752747
2019-03-22T01:33:32.380Z,8.762817
2019-03-22T01:33:44.149Z,8.762817
2019-03-22T01:33:55.916Z,8.752747
2019-03-22T01:34:07.689Z,8.752747
2019-03-22T01:34:19.437Z,8.752747
2019-03-22T01:34:31.208Z,8.732605
2019-03-22T01:34:42.961Z,8.752747
2019-03-22T01:34:54.722Z,8.732605
2019-03-22T01:35:06.492Z,8.732605
2019-03-22T01:35:19.244Z,8.722534
2019-03-22T01:35:31.032Z,8.722534
2019-03-22T01:35:42.814Z,8.712463
2019-03-22T01:35:54.559Z,8.712463
2019-03-22T01:36:06.318Z,8.712463
2019-03-22T01:36:18.124Z,8.712463
2019-03-22T01:36:29.892Z,8.712463
2019-03-22T01:36:41.638Z,8.712463
2019-03-22T01:36:53.417Z,8.712463
2019-03-22T01:37:05.209Z,8.692322
2019-03-22T01:37:16.959Z,8.712463
2019-03-22T01:37:28.728Z,8.712463
2019-03-22T01:37:40.510Z,8.722534
2019-03-22T01:37:52.262Z,8.722534
2019-03-22T01:38:04.042Z,8.712463
2019-03-22T01:38:15.800Z,8.722534
2019-03-22T01:38:27.558Z,8.722534
2019-03-22T01:38:39.311Z,8.722534
2019-03-22T01:38:51.087Z,8.722534
2019-03-22T01:39:02.824Z,8.722534
2019-03-22T01:39:14.591Z,8.732605
2019-03-22T01:39:26.384Z,8.752747
2019-03-22T01:39:38.190Z,8.732605
2019-03-22T01:39:49.947Z,8.752747
2019-03-22T01:40:01.728Z,8.752747
2019-03-22T01:40:13.496Z,8.762817
2019-03-22T01:40:25.261Z,8.752747
2019-03-22T01:40:37.014Z,8.762817
2019-03-22T01:40:48.781Z,8.762817
2019-03-22T01:41:00.518Z,8.762817
2019-03-22T01:41:12.289Z,8.762817
2019-03-22T01:41:24.092Z,8.79303
2019-03-22T01:41:35.849Z,8.813171
2019-03-22T01:41:47.613Z,8.79303
2019-03-22T01:41:59.375Z,8.79303
2019-03-22T01:42:11.153Z,8.813171
2019-03-22T01:42:22.919Z,8.79303
2019-03-22T01:42:34.679Z,8.79303
2019-03-22T01:42:46.436Z,8.813171
2019-03-22T01:42:58.206Z,8.813171
2019-03-22T01:43:09.983Z,8.833313
2019-03-22T01:43:21.767Z,8.833313
2019-03-22T01:43:33.536Z,8.833313
2019-03-22T01:43:45.317Z,8.833313
2019-03-22T01:43:57.109Z,8.843384
2019-03-22T01:44:08.882Z,8.833313
2019-03-22T01:44:20.647Z,8.843384
2019-03-22T01:44:32.419Z,8.863525
2019-03-22T01:44:44.199Z,8.863525
2019-03-22T01:44:55.958Z,8.863525
2019-03-22T01:45:07.770Z,8.863525
2019-03-22T01:45:19.527Z,8.873596
2019-03-22T01:45:31.269Z,8.863525
2019-03-22T01:45:43.050Z,8.863525
2019-03-22T01:45:54.812Z,8.873596
2019-03-22T01:46:06.538Z,8.873596
2019-03-22T01:46:18.315Z,8.873596
2019-03-22T01:46:30.109Z,8.863525
2019-03-22T01:46:41.885Z,8.873596
2019-03-22T01:46:53.641Z,8.873596
2019-03-22T01:47:05.410Z,8.863525
2019-03-22T01:47:17.175Z,8.863525
2019-03-22T01:47:28.935Z,8.863525
2019-03-22T01:47:40.684Z,8.843384
2019-03-22T01:47:52.454Z,8.873596
2019-03-22T01:48:04.218Z,8.873596
2019-03-22T01:48:15.986Z,8.863525
2019-03-22T01:48:27.750Z,8.863525
2019-03-22T01:48:39.539Z,8.863525
2019-03-22T01:48:51.298Z,8.863525
2019-03-22T01:49:03.051Z,8.863525
2019-03-22T01:49:14.813Z,8.863525
2019-03-22T01:49:26.572Z,8.863525
2019-03-22T01:49:38.313Z,8.873596
2019-03-22T01:49:50.081Z,8.863525
2019-03-22T01:50:01.833Z,8.843384
2019-03-22T01:50:13.577Z,8.863525
2019-03-22T01:50:25.334Z,8.863525
2019-03-22T01:50:37.091Z,8.873596
2019-03-22T01:50:48.835Z,8.863525
2019-03-22T01:51:00.574Z,8.863525
2019-03-22T01:51:12.326Z,8.863525
2019-03-22T01:51:24.142Z,8.873596
2019-03-22T01:51:35.915Z,8.863525
2019-03-22T01:51:47.668Z,8.863525
2019-03-22T01:51:59.426Z,8.873596
2019-03-22T01:52:11.188Z,8.863525
2019-03-22T01:52:22.973Z,8.863525
2019-03-22T01:52:34.708Z,8.863525
2019-03-22T01:52:46.457Z,8.863525
2019-03-22T01:52:58.215Z,8.873596
2019-03-22T01:53:10.007Z,8.843384
2019-03-22T01:53:21.762Z,8.883667
2019-03-22T01:53:33.518Z,8.873596
2019-03-22T01:53:45.302Z,8.863525
2019-03-22T01:53:57.074Z,8.873596
2019-03-22T01:54:08.835Z,8.863525
2019-03-22T01:54:20.575Z,8.873596
2019-03-22T01:54:32.315Z,8.873596
2019-03-22T01:54:44.084Z,8.863525
2019-03-22T01:54:55.852Z,8.863525
2019-03-22T01:55:07.627Z,8.843384
2019-03-22T01:55:19.390Z,8.833313
2019-03-22T01:55:31.147Z,8.843384
2019-03-22T01:55:42.929Z,8.843384
2019-03-22T01:55:54.672Z,8.863525
2019-03-22T01:56:06.463Z,8.833313
2019-03-22T01:56:18.244Z,8.843384
2019-03-22T01:56:30.028Z,8.843384
2019-03-22T01:56:41.766Z,8.843384
2019-03-22T01:56:53.563Z,8.863525
2019-03-22T01:57:05.322Z,8.863525
2019-03-22T01:57:17.080Z,8.863525
2019-03-22T01:57:28.853Z,8.863525
2019-03-22T01:57:51.872Z,8.873596
2019-03-22T01:57:54.055Z,8.863525
2019-03-22T01:58:05.091Z,8.873596
2019-03-22T01:58:16.830Z,8.863525
2019-03-22T01:58:28.599Z,8.873596
2019-03-22T01:58:40.360Z,8.873596
2019-03-22T01:58:52.145Z,8.873596
2019-03-22T01:59:03.906Z,8.873596
2019-03-22T01:59:15.655Z,8.873596
2019-03-22T01:59:27.440Z,8.873596
2019-03-22T01:59:39.198Z,8.883667
2019-03-22T01:59:50.985Z,8.883667
2019-03-22T02:00:02.756Z,8.883667
2019-03-22T02:00:14.509Z,8.883667
2019-03-22T02:00:26.285Z,8.883667
2019-03-22T02:00:38.048Z,8.883667
2019-03-22T02:00:49.818Z,8.883667
2019-03-22T02:01:01.579Z,8.903809
2019-03-22T02:01:13.410Z,8.903809
2019-03-22T02:01:25.113Z,8.903809
2019-03-22T02:01:36.881Z,8.883667
2019-03-22T02:01:48.623Z,8.883667
2019-03-22T02:02:00.425Z,8.903809
2019-03-22T02:02:12.191Z,8.903809
2019-03-22T02:02:23.952Z,8.903809
2019-03-22T02:02:35.749Z,8.903809
2019-03-22T02:02:47.463Z,8.903809
2019-03-22T02:02:59.256Z,8.903809
2019-03-22T02:03:10.997Z,8.913879
2019-03-22T02:03:22.765Z,8.903809
2019-03-22T02:03:34.533Z,8.913879
2019-03-22T02:03:46.347Z,8.934021
2019-03-22T02:03:58.094Z,8.913879
2019-03-22T02:04:09.911Z,8.903809
2019-03-22T02:04:21.684Z,8.913879
2019-03-22T02:04:33.429Z,8.913879
2019-03-22T02:04:45.208Z,8.934021
2019-03-22T02:04:57.002Z,8.934021
2019-03-22T02:05:08.747Z,8.913879
2019-03-22T02:05:20.525Z,8.913879
2019-03-22T02:05:32.296Z,8.934021
2019-03-22T02:05:44.049Z,8.913879
2019-03-22T02:05:55.826Z,8.934021
2019-03-22T02:06:07.600Z,8.913879
2019-03-22T02:06:19.332Z,8.934021
2019-03-22T02:06:31.112Z,8.934021
2019-03-22T02:06:42.874Z,8.913879
2019-03-22T02:06:54.640Z,8.934021
2019-03-22T02:07:06.409Z,8.934021
2019-03-22T02:07:18.200Z,8.934021
2019-03-22T02:07:29.983Z,8.913879
2019-03-22T02:07:41.734Z,8.934021
2019-03-22T02:07:53.497Z,8.913879
2019-03-22T02:08:05.267Z,8.934021
2019-03-22T02:08:17.023Z,8.913879
2019-03-22T02:08:28.775Z,8.903809
2019-03-22T02:08:40.569Z,8.913879
2019-03-22T02:08:52.338Z,8.913879
2019-03-22T02:09:04.096Z,8.934021
2019-03-22T02:09:15.839Z,8.913879
2019-03-22T02:09:27.622Z,8.913879
2019-03-22T02:09:39.392Z,8.934021
2019-03-22T02:09:51.191Z,8.934021
2019-03-22T02:10:02.959Z,8.934021
2019-03-22T02:10:15.728Z,8.934021
2019-03-22T02:10:27.472Z,8.913879
2019-03-22T02:10:39.243Z,8.934021
2019-03-22T02:10:51.010Z,8.913879
2019-03-22T02:11:02.824Z,8.934021
2019-03-22T02:11:14.568Z,8.934021
2019-03-22T02:11:26.350Z,8.913879
2019-03-22T02:11:38.122Z,8.913879
2019-03-22T02:11:49.859Z,8.913879
2019-03-22T02:12:01.614Z,8.913879
2019-03-22T02:12:13.392Z,8.913879
2019-03-22T02:12:25.165Z,8.913879
2019-03-22T02:12:36.903Z,8.913879
2019-03-22T02:12:48.649Z,8.913879
2019-03-22T02:13:00.418Z,8.913879
2019-03-22T02:13:12.174Z,8.913879
2019-03-22T02:13:23.909Z,8.903809
2019-03-22T02:13:35.700Z,8.913879
2019-03-22T02:13:47.443Z,8.913879
2019-03-22T02:13:59.216Z,8.903809
2019-03-22T02:14:10.969Z,8.913879
2019-03-22T02:14:22.740Z,8.913879
2019-03-22T02:14:34.497Z,8.913879
2019-03-22T02:14:46.250Z,8.913879
2019-03-22T02:14:57.996Z,8.913879
2019-03-22T02:15:09.767Z,8.913879
2019-03-22T02:15:21.522Z,8.913879
2019-03-22T02:15:33.310Z,8.913879
2019-03-22T02:15:45.078Z,8.903809
2019-03-22T02:15:56.834Z,8.913879
2019-03-22T02:16:08.622Z,8.903809
2019-03-22T02:16:20.392Z,8.903809
2019-03-22T02:16:32.174Z,8.903809
2019-03-22T02:16:43.948Z,8.913879
2019-03-22T02:16:55.735Z,8.903809
2019-03-22T02:17:07.487Z,8.913879
2019-03-22T02:17:19.262Z,8.903809
2019-03-22T02:17:31.057Z,8.903809
2019-03-22T02:17:42.799Z,8.903809
2019-03-22T02:17:54.568Z,8.883667
2019-03-22T02:18:06.366Z,8.903809
2019-03-22T02:18:18.098Z,8.903809
2019-03-22T02:18:29.861Z,8.903809